Terminal Aerodrome Forecast
Issued by NWS

Home | Current Version | Previous Version | Text Only | Print | Product List | Glossary On
Versions: 1 2 3 4 5 6 7 8 9 10 11 12 13 14 15
643
FTUS45 KVEF 271817 AAA
TAFHND
TAF AMD
KHND 271817Z 2718/2818 01006KT P6SM SCT070 BKN100
     FM271900 32014G22KT P6SM SCT070 BKN100
     FM280200 32020G30KT P6SM SCT100
     FM280800 35015G25KT P6SM FEW100=

USA.gov is the U.S. government's official web portal to all federal, state and local government web resources and services.